ADDS METAR Data INFO
IDs: Format: Raw Decoded Include TAF

Data at: 1945 UTC 17 Feb 2018

KGUL 171935Z AUTO 20011KT 7SM CLR 23/20 A3014 RMK A01
KGUL 171915Z AUTO 21011KT 7SM CLR 23/20 A3014 RMK A01
KGUL 171855Z AUTO 21011KT 7SM CLR 23/20 A3014 RMK A01
KGUL 171835Z AUTO 21010KT 6SM HZ CLR 23/20 A3015 RMK A01
KGUL 171815Z AUTO 21011KT 6SM HZ CLR 23/20 A3016 RMK A01
KGUL 171755Z AUTO 21012KT 7SM CLR 23/20 A3016 RMK A01
KGUL 171735Z AUTO 21012KT 6SM HZ CLR 23/20 A3017 RMK A01
KGUL 171715Z AUTO 20013KT 6SM HZ CLR 23/20 A3016 RMK A01
KGUL 171655Z AUTO 21014KT 6SM HZ FEW017 23/20 A3016 RMK A01
KGUL 171635Z AUTO 21015KT 6SM HZ FEW017 23/20 A3016 RMK A01
KGUL 171615Z AUTO 21018KT 6SM HZ FEW016 23/20 A3016 RMK A01
KGUL 171555Z AUTO 21017KT 6SM HZ FEW016 23/20 A3015 RMK A01
KGUL 171535Z AUTO 21014KT 6SM HZ CLR 23/20 A3014 RMK A01
KGUL 171515Z AUTO 20018KT 5SM HZ CLR 23/20 A3013 RMK A01
KGUL 171455Z AUTO 20019KT 5SM HZ CLR 22/20 A3013 RMK A01
KGUL 171435Z AUTO 20018KT 6SM HZ CLR 22/20 A3012 RMK A01
KGUL 171415Z AUTO 20021KT 5SM HZ CLR 22/20 A3011 RMK A01
KGUL 171355Z AUTO 21019KT 5SM BR CLR 22/20 A3011 RMK A01
KGUL 171335Z AUTO 21017KT 5SM BR CLR 22/20 A3011 RMK A01
KGUL 171315Z AUTO 21018KT 5SM BR FEW011 22/20 A3011 RMK A01
KGUL 171255Z AUTO 21016KT 4SM BR FEW014 22/20 A3011 RMK A01
KGUL 171235Z AUTO 21017KT 6SM BR BKN014 22/20 A3011 RMK A01
KGUL 171215Z AUTO 21015KT 5SM BR SCT014 22/20 A3011 RMK A01
KGUL 171155Z AUTO 21014KT 5SM BR CLR 22/20 A3010 RMK A01
KGUL 171135Z AUTO 21013KT 6SM BR CLR 22/20 A3010 RMK A01
KGUL 171115Z AUTO 21015KT 5SM BR CLR 22/20 A3010 RMK A01
KGUL 171055Z AUTO 21015KT 5SM BR CLR 22/21 A3010 RMK A01
KGUL 171035Z AUTO 21013KT 5SM BR CLR 22/21 A3010 RMK A01
KGUL 171015Z AUTO 21014KT 5SM BR CLR 22/21 A3010 RMK A01
KGUL 170955Z AUTO 22014KT 5SM BR FEW012 22/21 A3010 RMK A01
KGUL 170935Z AUTO 21015KT 5SM BR SCT010 SCT015 22/21 A3010 RMK A01
KGUL 170915Z AUTO 21015KT 5SM BR CLR 22/21 A3010 RMK A01
KGUL 170855Z AUTO 20013KT 4SM BR CLR 22/21 A3010 RMK A01
KGUL 170835Z AUTO 21015KT 4SM BR FEW008 FEW015 22/21 A3010 RMK A01
KGUL 170815Z AUTO 21014KT 4SM BR SCT009 SCT015 22/21 A3010 RMK A01
KGUL 170755Z AUTO 20012KT 4SM BR CLR 22/21 A3011 RMK A01
KGUL 170735Z AUTO 19012KT 4SM BR CLR 22/21 A3011 RMK A01
KGUL 170715Z AUTO 18010KT 4SM BR CLR 22/21 A3012 RMK A01
KGUL 170655Z AUTO 18011KT 4SM BR CLR 22/21 A3012 RMK A01
KGUL 170635Z AUTO 17011KT 4SM BR CLR 22/21 A3012 RMK A01
KGUL 170615Z AUTO 16011KT 3SM BR CLR 22/22 A3012 RMK A01
KGUL 170555Z AUTO 18010KT 4SM BR FEW004 FEW012 22/22 A3013 RMK A01
KGUL 170535Z AUTO 17010KT 4SM BR CLR 22/21 A3013 RMK A01
KGUL 170515Z AUTO 17009KT 4SM BR CLR 22/22 A3013 RMK A01
KGUL 170455Z AUTO 15011KT 4SM BR CLR 22/22 A3013 RMK A01
KGUL 170435Z AUTO 14009KT 4SM BR CLR 22/22 A3013 RMK A01
KGUL 170415Z AUTO 14009KT 4SM BR CLR 22/22 A3013 RMK A01
KGUL 170355Z AUTO 15009KT 4SM BR CLR 22/22 A3013 RMK A01
KGUL 170335Z AUTO 14008KT 4SM BR CLR 22/22 A3013 RMK A01
KGUL 170315Z AUTO 13007KT 3SM BR CLR 22/22 A3013 RMK A01
KGUL 170255Z AUTO 13007KT 4SM BR FEW006 FEW019 FEW024 22/22 A3013 RMK A01
KGUL 170235Z AUTO 11006KT 4SM BR SCT006 SCT020 BKN025 22/22 A3014 RMK A01
KGUL 170215Z AUTO 10006KT 3SM BR BKN006 BKN020 BKN026 22/21 A3014 RMK A01
KGUL 170155Z AUTO 11005KT 4SM BR FEW006 SCT023 22/21 A3013 RMK A01
KGUL 170135Z AUTO 12006KT 3SM BR FEW006 SCT021 22/21 A3013 RMK A01
KGUL 170115Z AUTO 14006KT 3SM BR FEW006 SCT020 22/21 A3012 RMK A01
KGUL 170055Z AUTO 14006KT 4SM BR FEW006 FEW015 22/21 A3012 RMK A01
KGUL 170035Z AUTO 14006KT 4SM BR FEW017 22/21 A3012 RMK A01
KGUL 170015Z AUTO 13007KT 3SM BR FEW018 22/21 A3012 RMK A01
KGUL 162355Z AUTO 14008KT 3SM BR BKN017 22/21 A3011 RMK A01
KGUL 162335Z AUTO 13008KT 4SM BR BKN017 22/21 A3012 RMK A01
KGUL 162315Z AUTO 13007KT 4SM BR CLR 22/21 A3012 RMK A01
KGUL 162255Z AUTO 13007KT 4SM BR CLR 22/21 A3012 RMK A01
KGUL 162235Z AUTO 13008KT 4SM BR CLR 22/21 A3012 RMK A01
KGUL 162215Z AUTO 13008KT 5SM BR CLR 23/21 A3012 RMK A01
KGUL 162155Z AUTO 14007KT 5SM BR CLR 23/21 A3012 RMK A01
KGUL 162135Z AUTO 13009KT 5SM BR CLR 23/21 A3012 RMK A01
KGUL 162115Z AUTO 14009KT 6SM BR CLR 23/21 A3013 RMK A01
KGUL 162055Z AUTO 13009KT 6SM BR CLR 23/21 A3013 RMK A01
KGUL 162035Z AUTO 13008KT 6SM BR CLR 23/21 A3013 RMK A01
KGUL 162015Z AUTO 14008KT 6SM BR CLR 23/21 A3014 RMK A01
KGUL 161955Z AUTO 14008KT 6SM BR CLR 23/21 A3014 RMK A01
KGUL 161935Z AUTO 15008KT 5SM BR CLR 23/21 A3015 RMK A01
KGUL 161915Z AUTO 13009KT 6SM BR CLR 23/21 A3015 RMK A01
KGUL 161855Z AUTO 14009KT 5SM BR CLR 23/21 A3015 RMK A01
KGUL 161835Z AUTO 14009KT 5SM BR CLR 23/21 A3016 RMK A01
KGUL 161815Z AUTO 15008KT 5SM BR CLR 23/21 A3017 RMK A01
KGUL 161755Z AUTO 16009KT 5SM BR CLR 23/21 A3017 RMK A01
KGUL 161735Z AUTO 16009KT 5SM BR CLR 23/21 A3018 RMK A01
KGUL 161715Z AUTO 17007KT 6SM HZ CLR 23/21 A3018 RMK A01
KGUL 161655Z AUTO 17007KT 7SM CLR 23/20 A3019 RMK A01
KGUL 161635Z AUTO 20009KT 6SM HZ CLR 23/20 A3019 RMK A01
KGUL 161615Z AUTO 20008KT 6SM HZ CLR 23/20 A3020 RMK A01
KGUL 161555Z AUTO 20010KT 6SM HZ CLR 23/20 A3020 RMK A01
KGUL 161535Z AUTO 20010KT 5SM HZ CLR 23/20 A3020 RMK A01
KGUL 161515Z AUTO 22010KT 5SM HZ CLR 23/20 A3020 RMK A01
KGUL 161455Z AUTO 22010KT 4SM BR CLR 23/21 A3019 RMK A01
KGUL 161435Z AUTO 22011KT 5SM BR FEW019 FEW024 22/20 A3019 RMK A01
KGUL 161415Z AUTO 21011KT 4SM BR SCT013 BKN021 22/20 A3018 RMK A01
KGUL 161355Z AUTO 22011KT 5SM BR SCT014 BKN020 22/20 A3018 RMK A01
KGUL 161335Z AUTO 21008KT 4SM BR SCT015 SCT019 22/21 A3017 RMK A01
KGUL 161315Z AUTO 22009KT 4SM BR BKN016 SCT021 22/20 A3016 RMK A01
KGUL 161255Z AUTO 22010KT 4SM BR BKN014 BKN020 22/21 A3016 RMK A01
KGUL 161235Z AUTO 23009KT 5SM BR BKN012 22/21 A3015 RMK A01
KGUL 161215Z AUTO 23009KT 5SM BR SCT012 22/21 A3014 RMK A01
KGUL 161155Z AUTO 23010KT 5SM BR CLR 22/21 A3013 RMK A01
KGUL 161135Z AUTO 23011KT 5SM BR CLR 22/21 A3012 RMK A01
KGUL 161115Z AUTO 22013KT 5SM BR CLR 22/21 A3011 RMK A01
KGUL 161055Z AUTO 21014KT 4SM BR CLR 22/21 A3010 RMK A01
KGUL 161035Z AUTO 21014KT 4SM BR CLR 22/21 A3010 RMK A01
KGUL 161015Z AUTO 22014KT 4SM BR CLR 22/21 A3010 RMK A01
KGUL 160955Z AUTO 22017KT 4SM BR FEW009 22/21 A3010 RMK A01
KGUL 160935Z AUTO 22016KT 4SM BR SCT009 22/21 A3010 RMK A01
KGUL 160915Z AUTO 22016KT 4SM BR SCT009 22/21 A3011 RMK A01
KGUL 160855Z AUTO 22018KT 4SM BR FEW009 22/21 A3011 RMK A01
KGUL 160835Z AUTO 22017KT 4SM BR FEW012 22/21 A3012 RMK A01
KGUL 160815Z AUTO 22019KT 5SM BR FEW012 22/21 A3012 RMK A01
KGUL 160755Z AUTO 21020KT 5SM BR FEW012 22/21 A3012 RMK A01